Time;durP1;ratioP1;P1;durP2;ratioP2;P2;SDS_P1;SDS_P2;PMS_P1;PMS_P2;Temp;Humidity;BMP_temperature;BMP_pressure;BME280_temperature;BME280_humidity;BME280_pressure;Samples;Min_cycle;Max_cycle;Signal;HPM_P1;HPM_P2
2022/01/04 00:01:33;;;;;;;15.72;8.08;;;;;;;9.32;83.83;99166.41;2966476;80;21002;-72
2022/01/04 00:05:34;;;;;;;7.67;4.33;;;;;;;9.29;83.54;99160.91;2966340;80;21063;-72
2022/01/04 00:09:40;;;;;;;11.63;5.92;;;;;;;9.28;83.13;99161.05;2965022;80;21007;-72
2022/01/04 00:13:40;;;;;;;12.60;5.17;;;;;;;9.26;82.74;99160.36;2966034;80;21043;-72
2022/01/04 00:17:41;;;;;;;2.85;1.67;;;;;;;9.23;82.66;99154.84;2966217;80;20984;-72
2022/01/04 00:21:43;;;;;;;1.22;1.02;;;;;;;9.17;82.66;99151.45;2966697;80;20991;-72
2022/01/04 00:25:46;;;;;;;4.40;3.22;;;;;;;9.18;82.92;99143.83;2966373;80;20987;-72
2022/01/04 00:29:47;;;;;;;9.53;3.95;;;;;;;9.17;83.31;99136.04;2965495;80;21027;-70
2022/01/04 00:33:50;;;;;;;6.50;3.42;;;;;;;9.16;83.31;99135.19;2950478;80;21012;-72
2022/01/04 00:37:51;;;;;;;4.22;2.75;;;;;;;9.15;83.49;99124.23;2914627;81;21011;-72
2022/01/04 00:41:53;;;;;;;2.08;1.35;;;;;;;9.20;83.47;99129.11;2955610;79;21014;-72
2022/01/04 00:45:55;;;;;;;1.82;0.98;;;;;;;9.18;83.10;99127.91;2914978;81;20987;-72
2022/01/04 00:49:57;;;;;;;1.35;0.80;;;;;;;9.20;83.14;99117.17;2956663;80;21034;-70
2022/01/04 00:53:58;;;;;;;1.05;0.65;;;;;;;9.24;82.62;99110.58;2915130;81;20995;-72
2022/01/04 00:58:00;;;;;;;0.57;0.57;;;;;;;9.24;82.16;99106.12;2956527;80;21007;-72
2022/01/04 01:02:02;;;;;;;0.60;0.50;;;;;;;9.26;81.99;99100.66;2915004;81;21018;-72
2022/01/04 01:06:04;;;;;;;1.30;0.60;;;;;;;9.22;81.78;99100.61;2956574;80;20956;-72
2022/01/04 01:10:51;;;;;;;0.98;0.55;;;;;;;9.19;82.11;99089.78;2887684;81;20987;-70
2022/01/04 01:14:16;;;;;;;1.02;0.72;;;;;;;9.20;81.71;99080.02;2926900;80;20999;-72
2022/01/04 01:18:18;;;;;;;0.98;0.60;;;;;;;9.20;81.44;99066.25;2884055;81;21030;-71
2022/01/04 01:22:20;;;;;;;0.45;0.37;;;;;;;9.18;81.40;99060.26;2922069;81;20950;-72
2022/01/04 01:26:21;;;;;;;0.35;0.35;;;;;;;9.21;81.56;99049.85;2922574;81;21015;-72
2022/01/04 01:30:24;;;;;;;1.47;0.93;;;;;;;9.20;81.69;99048.19;2910661;80;21024;-72
2022/01/04 01:34:26;;;;;;;0.88;0.70;;;;;;;9.17;81.88;99046.65;2865071;83;21122;-72
2022/01/04 01:38:28;;;;;;;0.50;0.50;;;;;;;9.18;81.84;99037.70;2905080;82;21007;-72
2022/01/04 01:42:29;;;;;;;0.85;0.40;;;;;;;9.21;81.68;99034.75;2865059;83;21487;-72
2022/01/04 01:46:31;;;;;;;1.07;0.70;;;;;;;9.22;81.55;99032.44;2904983;82;20968;-71
2022/01/04 01:50:33;;;;;;;1.35;0.28;;;;;;;9.26;81.85;99028.53;2864786;83;21026;-70
2022/01/04 01:54:35;;;;;;;0.20;0.20;;;;;;;9.27;81.85;99026.22;2905234;82;20975;-72
2022/01/04 01:58:36;;;;;;;2.00;0.98;;;;;;;9.28;81.60;99011.97;2865211;83;20995;-72
2022/01/04 02:02:38;;;;;;;0.20;0.20;;;;;;;9.31;81.42;99001.53;2874590;83;20985;-72
2022/01/04 02:06:41;;;;;;;1.02;0.20;;;;;;;9.34;81.71;99005.72;2865461;83;20979;-72
2022/01/04 02:10:43;;;;;;;1.00;0.30;;;;;;;9.40;81.71;99006.43;2905684;82;21015;-72
2022/01/04 02:14:52;;;;;;;0.98;0.15;;;;;;;9.37;82.00;99004.08;2865098;83;21048;-73
2022/01/04 02:19:07;;;;;;;0.57;0.28;;;;;;;9.43;81.51;98982.23;2875028;83;20992;-72
2022/01/04 02:23:08;;;;;;;1.35;0.90;;;;;;;9.42;81.17;98976.59;2865177;83;21018;-72
2022/01/04 02:27:11;;;;;;;2.70;1.10;;;;;;;9.44;80.81;98970.67;2905112;82;21006;-72
2022/01/04 02:31:12;;;;;;;1.62;0.88;;;;;;;9.47;80.65;98967.70;2884081;80;21035;-72
2022/01/04 02:35:18;;;;;;;1.85;1.00;;;;;;;9.40;80.52;98958.66;2957664;80;21037;-72
2022/01/04 02:39:20;;;;;;;0.85;0.78;;;;;;;9.36;80.81;98953.31;2922010;81;21032;-72
2022/01/04 02:43:21;;;;;;;2.27;0.60;;;;;;;9.39;80.67;98939.74;2958192;80;21009;-72
2022/01/04 02:47:24;;;;;;;1.85;0.80;;;;;;;9.37;80.53;98939.91;2923016;81;21039;-72
2022/01/04 02:51:25;;;;;;;2.10;1.07;;;;;;;9.37;80.38;98935.08;2883105;81;20976;-72
2022/01/04 02:55:27;;;;;;;1.47;0.75;;;;;;;9.29;80.43;98928.72;2932117;80;21133;-72
2022/01/04 02:59:29;;;;;;;0.55;0.55;;;;;;;9.24;80.38;98917.73;2957947;80;21063;-72
2022/01/04 03:03:31;;;;;;;0.90;0.37;;;;;;;9.17;80.53;98916.65;2925118;81;21004;-72
2022/01/04 03:07:33;;;;;;;0.62;0.35;;;;;;;9.21;80.34;98909.23;2922205;78;20944;-72
2022/01/04 03:11:35;;;;;;;0.25;0.25;;;;;;;9.15;80.26;98904.03;2924499;81;20999;-72
2022/01/04 03:15:37;;;;;;;0.78;0.50;;;;;;;9.14;80.11;98897.91;2872742;81;21027;-72
2022/01/04 03:19:38;;;;;;;1.67;1.02;;;;;;;9.09;80.66;98894.03;2930368;80;20940;-72
2022/01/04 03:23:40;;;;;;;0.28;0.28;;;;;;;9.06;80.66;98889.84;2958046;80;20986;-72
2022/01/04 03:27:41;;;;;;;0.50;0.23;;;;;;;9.01;81.36;98886.81;2934405;81;21552;-72
2022/01/04 03:31:44;;;;;;;1.57;0.68;;;;;;;9.02;81.93;98884.51;2918419;81;21070;-72
2022/01/04 03:35:45;;;;;;;0.93;0.50;;;;;;;9.02;82.33;98878.35;2916146;81;21066;-72
2022/01/04 03:39:47;;;;;;;0.72;0.40;;;;;;;9.00;82.57;98875.36;2916024;81;20951;-72
2022/01/04 03:43:50;;;;;;;1.82;0.57;;;;;;;8.98;82.77;98869.38;2915965;81;21631;-73
2022/01/04 03:47:52;;;;;;;1.72;0.80;;;;;;;8.93;83.04;98852.23;2915868;81;21532;-72
2022/01/04 03:51:54;;;;;;;3.72;0.50;;;;;;;8.95;83.35;98835.72;2915459;81;21020;-72
2022/01/04 03:55:55;;;;;;;0.88;0.33;;;;;;;8.99;83.37;98824.63;2916170;81;21062;-72
2022/01/04 03:59:57;;;;;;;1.47;1.25;;;;;;;8.93;83.42;98825.24;2916076;81;20963;-71
2022/01/04 04:03:58;;;;;;;0.85;0.75;;;;;;;9.00;83.07;98819.66;2916110;81;21022;-72
2022/01/04 04:08:00;;;;;;;1.27;0.50;;;;;;;9.05;83.17;98817.07;2916719;81;21000;-72
2022/01/04 04:12:03;;;;;;;0.68;0.65;;;;;;;9.08;82.66;98813.60;2916809;81;21043;-72
2022/01/04 04:16:05;;;;;;;0.90;0.50;;;;;;;9.00;83.01;98810.38;2916512;81;21031;-74
2022/01/04 04:20:07;;;;;;;0.72;0.68;;;;;;;9.00;83.17;98802.94;2916635;81;20975;-73
2022/01/04 04:24:09;;;;;;;2.65;0.75;;;;;;;9.02;83.29;98802.77;2916439;81;21054;-74
2022/01/04 04:28:10;;;;;;;0.60;0.60;;;;;;;8.99;83.48;98790.15;2916288;81;20967;-73
2022/01/04 04:32:12;;;;;;;2.77;1.05;;;;;;;8.99;83.62;98787.50;2916443;81;20992;-73
2022/01/04 04:36:13;;;;;;;1.90;0.80;;;;;;;8.94;84.19;98789.78;2916240;81;21023;-73
2022/01/04 04:40:15;;;;;;;0.72;0.65;;;;;;;8.94;84.47;98788.93;2861356;82;21042;-73
2022/01/04 04:44:17;;;;;;;1.02;0.50;;;;;;;9.04;84.28;98783.55;2888147;82;21086;-73
2022/01/04 04:48:19;;;;;;;1.60;1.07;;;;;;;9.05;84.10;98782.08;2888090;82;20988;-73
2022/01/04 04:52:21;;;;;;;1.10;0.47;;;;;;;9.12;84.12;98783.63;2888338;82;21019;-73
2022/01/04 04:56:22;;;;;;;0.75;0.75;;;;;;;9.15;84.05;98767.41;2888415;82;20952;-72
2022/01/04 05:00:24;;;;;;;1.10;0.70;;;;;;;9.18;83.79;98753.01;2888351;82;21069;-73
2022/01/04 05:04:25;;;;;;;1.00;0.82;;;;;;;9.09;84.37;98760.07;2889228;82;21082;-74
2022/01/04 05:08:27;;;;;;;0.82;0.80;;;;;;;9.11;84.47;98752.79;2890551;82;21053;-73
2022/01/04 05:12:28;;;;;;;1.45;0.80;;;;;;;9.07;84.80;98751.44;2888898;81;21011;-73
2022/01/04 05:16:30;;;;;;;3.87;1.10;;;;;;;9.16;84.42;98742.54;2890309;82;20991;-73
2022/01/04 05:20:31;;;;;;;2.60;1.50;;;;;;;9.11;84.77;98740.85;2888416;81;21622;-73
2022/01/04 05:24:33;;;;;;;4.10;2.45;;;;;;;9.18;84.64;98736.58;2889816;82;21093;-72
2022/01/04 05:28:34;;;;;;;4.92;2.47;;;;;;;9.21;84.71;98741.57;2919068;81;20916;-73
2022/01/04 05:32:36;;;;;;;2.52;2.33;;;;;;;9.26;84.92;98735.33;2887507;81;20956;-72
2022/01/04 05:36:37;;;;;;;4.22;2.58;;;;;;;9.29;84.74;98729.70;2955735;80;21027;-72
2022/01/04 05:40:39;;;;;;;5.67;3.35;;;;;;;9.41;84.38;98721.47;2913938;80;21110;-72
2022/01/04 05:44:40;;;;;;;3.10;2.75;;;;;;;9.41;84.53;98716.16;2955009;80;20984;-73
2022/01/04 05:48:43;;;;;;;6.35;3.45;;;;;;;9.42;84.68;98716.50;2915069;81;21003;-73
2022/01/04 05:52:44;;;;;;;6.47;3.37;;;;;;;9.37;85.19;98701.55;2954638;80;21042;-72
2022/01/04 05:56:46;;;;;;;4.50;3.02;;;;;;;9.36;85.82;98698.55;2914214;81;21046;-73
2022/01/04 06:00:47;;;;;;;4.33;2.90;;;;;;;9.35;86.59;98695.56;2954016;80;20975;-73
2022/01/04 06:04:49;;;;;;;3.95;2.33;;;;;;;9.36;86.91;98697.23;2912392;82;21034;-72
2022/01/04 06:08:51;;;;;;;2.72;2.27;;;;;;;9.37;86.83;98690.93;2953546;79;21062;-73
2022/01/04 06:16:54;;;;;;;4.15;2.58;;;;;;;9.49;86.60;98699.45;2912256;82;21092;-72
2022/01/04 06:20:56;;;;;;;4.15;2.92;;;;;;;9.52;86.34;98680.07;2953559;80;20987;-73
2022/01/04 06:24:59;;;;;;;6.15;4.40;;;;;;;9.53;86.28;98675.58;2912086;82;21107;-73
2022/01/04 06:29:01;;;;;;;8.93;4.75;;;;;;;9.47;86.42;98670.91;2953697;80;20976;-73
2022/01/04 06:33:03;;;;;;;7.25;4.00;;;;;;;9.47;86.63;98666.45;2872230;83;20985;-73
2022/01/04 06:37:05;;;;;;;13.08;5.85;;;;;;;9.47;87.04;98674.89;2912198;81;21063;-73
2022/01/04 06:41:07;;;;;;;8.03;5.35;;;;;;;9.43;87.29;98670.39;2953800;80;21031;-73
2022/01/04 06:45:10;;;;;;;6.35;4.53;;;;;;;9.46;87.29;98667.92;2912323;82;21028;-73
2022/01/04 06:49:16;;;;;;;11.48;6.78;;;;;;;9.48;87.59;98657.49;2953602;80;21027;-73
2022/01/04 06:53:18;;;;;;;5.40;3.72;;;;;;;9.45;88.00;98653.84;2872642;83;20997;-73
2022/01/04 06:57:19;;;;;;;5.35;3.58;;;;;;;9.47;88.17;98649.20;2912471;82;21011;-72
2022/01/04 07:01:22;;;;;;;3.65;3.15;;;;;;;9.50;88.20;98638.26;2955701;80;21330;-73
2022/01/04 07:05:23;;;;;;;4.10;3.37;;;;;;;9.50;88.56;98635.60;2872939;83;21232;-72
2022/01/04 07:09:25;;;;;;;6.28;5.05;;;;;;;9.49;88.59;98629.96;2912122;82;21023;-72
2022/01/04 07:13:27;;;;;;;8.08;4.50;;;;;;;9.51;88.86;98623.15;2953482;80;21022;-72
2022/01/04 07:17:28;;;;;;;4.35;3.90;;;;;;;9.51;88.97;98610.72;2912248;82;21059;-72
2022/01/04 07:21:30;;;;;;;5.67;4.08;;;;;;;9.50;89.21;98605.56;2953649;80;20972;-72
2022/01/04 07:25:32;;;;;;;4.22;2.67;;;;;;;9.51;89.30;98605.41;2922370;81;21037;-72
2022/01/04 07:29:33;;;;;;;3.25;2.92;;;;;;;9.47;89.90;98593.46;2912256;82;20980;-71
2022/01/04 07:33:35;;;;;;;3.80;2.30;;;;;;;9.50;89.94;98579.86;2955539;80;20976;-71
2022/01/04 07:37:37;;;;;;;3.47;1.90;;;;;;;9.51;89.96;98560.30;2958619;80;20976;-71
2022/01/04 07:41:38;;;;;;;2.50;2.15;;;;;;;9.51;90.15;98547.50;2958776;80;21023;-72
2022/01/04 07:45:41;;;;;;;3.10;1.98;;;;;;;9.51;90.15;98547.02;2958659;80;21011;-72
2022/01/04 07:49:43;;;;;;;1.75;1.60;;;;;;;9.44;90.97;98552.66;2959244;80;20999;-70
2022/01/04 07:53:44;;;;;;;1.70;1.60;;;;;;;9.37;91.64;98524.59;2958704;79;21690;-72
2022/01/04 07:57:46;;;;;;;5.15;2.90;;;;;;;9.35;91.86;98519.95;2958591;80;20975;-72
2022/01/04 08:01:48;;;;;;;6.42;4.70;;;;;;;9.40;91.36;98500.38;2958979;80;21050;-72
2022/01/04 08:05:50;;;;;;;128.87;83.35;;;;;;;9.36;92.08;98492.90;2959472;80;21026;-72
2022/01/04 08:09:52;;;;;;;44.13;24.23;;;;;;;9.11;93.27;98488.86;2961448;80;21289;-72
2022/01/04 08:13:54;;;;;;;26.10;10.88;;;;;;;8.91;94.27;98482.48;2959092;80;20996;-71
2022/01/04 08:17:55;;;;;;;16.70;9.33;;;;;;;8.87;94.91;98482.47;2961268;80;21039;-72
2022/01/04 08:21:57;;;;;;;14.90;9.43;;;;;;;8.83;95.39;98487.73;2960923;80;21031;-72
2022/01/04 08:25:59;;;;;;;13.32;8.68;;;;;;;8.83;95.91;98473.16;2960022;80;21078;-72
2022/01/04 08:30:01;;;;;;;11.73;8.05;;;;;;;8.76;96.65;98458.88;2959646;80;21047;-72
2022/01/04 08:34:03;;;;;;;10.95;7.53;;;;;;;8.86;96.30;98449.00;2959839;79;21078;-72
2022/01/04 08:38:06;;;;;;;11.97;8.10;;;;;;;8.85;96.79;98445.50;2958456;80;21034;-72
2022/01/04 08:42:08;;;;;;;8.35;6.17;;;;;;;9.03;95.83;98441.91;2958759;80;20995;-72
2022/01/04 08:46:11;;;;;;;8.33;3.80;;;;;;;9.13;95.69;98440.45;2959673;80;20999;-72
2022/01/04 08:50:14;;;;;;;16.30;6.15;;;;;;;9.24;95.19;98437.50;2935096;80;20952;-71
2022/01/04 08:54:16;;;;;;;11.45;7.87;;;;;;;9.40;94.83;98423.42;2960377;80;21023;-72
2022/01/04 08:58:18;;;;;;;13.68;9.60;;;;;;;9.64;94.30;98415.66;2960525;80;21027;-72
2022/01/04 09:02:19;;;;;;;11.53;9.58;;;;;;;9.84;93.55;98415.64;2959419;80;20995;-71
2022/01/04 09:06:22;;;;;;;8.23;6.55;;;;;;;10.04;92.88;98415.29;2960396;80;21015;-72
2022/01/04 09:10:24;;;;;;;67.95;46.50;;;;;;;10.09;92.09;98416.94;2959261;79;20979;-72
2022/01/04 09:14:39;;;;;;;42.40;38.02;;;;;;;10.23;91.89;98414.59;2961860;80;21006;-71
2022/01/04 09:22:43;;;;;;;26.27;20.52;;;;;;;10.50;91.01;98389.44;2960055;80;20996;-72
2022/01/04 09:26:45;;;;;;;14.50;11.83;;;;;;;10.64;90.76;98378.59;2958718;80;21039;-71
2022/01/04 09:30:50;;;;;;;14.60;11.10;;;;;;;10.65;90.32;98380.25;2959772;80;20980;-72
2022/01/04 09:34:51;;;;;;;12.00;10.65;;;;;;;10.65;90.12;98368.29;2959358;79;21016;-72
2022/01/04 09:38:53;;;;;;;20.60;12.70;;;;;;;10.70;89.99;98355.30;2961551;80;21004;-72
2022/01/04 09:42:55;;;;;;;13.30;11.83;;;;;;;10.82;89.82;98344.27;2961736;80;21073;-72
2022/01/04 09:47:02;;;;;;;12.13;8.83;;;;;;;10.81;89.29;98339.45;2935125;80;21086;-71
2022/01/04 09:51:01;;;;;;;11.00;8.00;;;;;;;10.82;89.11;98331.79;2957857;79;20925;-71
2022/01/04 09:55:04;;;;;;;12.88;8.13;;;;;;;10.91;89.23;98331.23;2958849;80;21007;-72
2022/01/04 09:59:06;;;;;;;12.43;7.95;;;;;;;10.96;88.88;98324.06;2961430;80;21019;-72
2022/01/04 10:03:18;;;;;;;22.82;14.43;;;;;;;11.03;88.30;98319.69;2960401;80;21003;-71
2022/01/04 10:07:22;;;;;;;17.05;12.13;;;;;;;11.06;88.04;98308.69;2960160;80;21038;-72
2022/01/04 10:11:34;;;;;;;23.62;15.18;;;;;;;11.12;88.00;98308.48;2961202;80;20963;-71
2022/01/04 10:15:47;;;;;;;22.93;14.90;;;;;;;11.18;87.93;98293.64;2960532;80;21066;-71
2022/01/04 10:19:53;;;;;;;13.78;11.05;;;;;;;11.20;87.79;98285.81;2957799;80;21007;-71
2022/01/04 10:23:56;;;;;;;31.60;13.45;;;;;;;11.18;87.87;98271.83;2960195;80;21007;-71
2022/01/04 10:27:58;;;;;;;32.80;15.55;;;;;;;11.20;87.77;98263.69;2958729;80;21038;-71
2022/01/04 10:32:09;;;;;;;10.43;8.70;;;;;;;11.26;87.82;98258.96;2959123;80;20960;-71
2022/01/04 10:36:12;;;;;;;76.25;24.37;;;;;;;11.30;87.82;98252.30;2961342;80;21065;-72
2022/01/04 10:40:14;;;;;;;41.48;29.92;;;;;;;11.33;87.25;98249.27;2961024;80;21011;-71
2022/01/04 10:44:15;;;;;;;30.20;19.50;;;;;;;11.34;87.38;98231.45;2960367;80;21002;-71
2022/01/04 10:48:25;;;;;;;38.83;24.15;;;;;;;11.36;87.33;98221.44;2961167;80;30639;-70
2022/01/04 10:52:32;;;;;;;25.10;14.20;;;;;;;11.34;87.54;98214.14;2961372;80;21027;-70
2022/01/04 10:56:40;;;;;;;20.50;16.45;;;;;;;11.36;87.38;98204.14;2958208;80;21017;-71
2022/01/04 11:00:45;;;;;;;16.70;13.72;;;;;;;11.37;88.03;98205.30;2961394;80;20991;-72
2022/01/04 11:04:52;;;;;;;11.17;8.30;;;;;;;11.35;87.55;98179.37;2960595;80;20991;-72
2022/01/04 11:08:55;;;;;;;13.15;9.30;;;;;;;11.32;87.97;98178.91;2954872;80;21518;-72
2022/01/04 11:12:58;;;;;;;12.13;8.45;;;;;;;11.27;88.42;98171.45;2958492;80;21264;-72
2022/01/04 11:17:00;;;;;;;11.05;8.05;;;;;;;11.27;88.32;98161.66;2958808;80;21015;-72
2022/01/04 11:21:02;;;;;;;9.88;6.33;;;;;;;11.26;88.66;98153.34;2959261;80;21042;-72
2022/01/04 11:25:05;;;;;;;7.45;5.62;;;;;;;11.27;89.31;98137.70;2959861;80;20979;-71
2022/01/04 11:29:06;;;;;;;12.47;7.65;;;;;;;11.29;90.01;98127.70;2959143;79;21027;-72
2022/01/04 11:33:28;;;;;;;7.72;6.12;;;;;;;11.44;90.14;98114.89;2950150;80;21066;-72
2022/01/04 11:37:30;;;;;;;11.22;8.28;;;;;;;11.52;89.86;98107.31;2946646;80;21015;-73
2022/01/04 11:41:42;;;;;;;8.00;5.33;;;;;;;11.41;88.89;98100.10;2958911;80;20995;-74
2022/01/04 11:45:48;;;;;;;8.60;3.80;;;;;;;11.35;89.49;98090.20;2914112;80;21046;-74
2022/01/04 11:50:17;;;;;;;5.90;4.33;;;;;;;11.33;88.86;98075.42;2944978;79;21036;-73
2022/01/04 11:54:28;;;;;;;9.10;5.97;;;;;;;11.34;89.04;98060.61;2948542;79;21039;-73
2022/01/04 11:58:47;;;;;;;6.05;3.87;;;;;;;11.14;90.74;98047.03;2960302;80;21031;-73
2022/01/04 12:03:10;;;;;;;11.15;6.00;;;;;;;10.87;92.73;98038.70;2958252;80;21023;-73
2022/01/04 12:07:11;;;;;;;8.93;6.10;;;;;;;10.79;93.01;98025.47;2950556;80;21006;-74
2022/01/04 12:11:30;;;;;;;8.30;6.00;;;;;;;10.71;93.87;98016.59;2932683;80;21129;-70
2022/01/04 12:15:45;;;;;;;10.85;6.53;;;;;;;10.54;95.13;98003.98;2958182;79;21015;-73
2022/01/04 12:19:51;;;;;;;28.02;12.28;;;;;;;10.49;95.96;98004.20;2959830;80;21007;-72
2022/01/04 12:23:54;;;;;;;29.90;16.50;;;;;;;10.34;96.77;97991.67;2958478;80;21066;-72
2022/01/04 12:28:16;;;;;;;31.23;15.28;;;;;;;10.27;97.39;97980.94;2959153;80;21011;-71
2022/01/04 12:32:21;;;;;;;47.58;23.57;;;;;;;10.29;97.76;97972.80;2947638;80;21003;-72
2022/01/04 12:36:37;;;;;;;37.65;23.45;;;;;;;10.31;97.95;97976.09;2956940;80;21011;-72
2022/01/04 12:40:38;;;;;;;36.27;20.93;;;;;;;10.45;96.98;97972.34;2913712;80;21027;-72
2022/01/04 12:44:40;;;;;;;21.57;11.73;;;;;;;10.44;97.85;97962.20;2954245;80;22095;-72
2022/01/04 12:48:59;;;;;;;17.95;10.93;;;;;;;10.35;97.95;97954.79;2872556;83;21044;-72
2022/01/04 12:53:01;;;;;;;20.55;10.38;;;;;;;10.41;98.25;97946.62;2874435;83;21008;-72
2022/01/04 12:57:13;;;;;;;10.40;6.60;;;;;;;10.41;98.14;97939.47;2864905;83;21026;-72
2022/01/04 13:01:23;;;;;;;10.75;8.58;;;;;;;10.45;98.12;97931.16;2937871;80;21035;-71
2022/01/04 13:05:24;;;;;;;14.85;9.45;;;;;;;10.52;98.33;97916.95;2913434;81;20991;-72
2022/01/04 13:09:27;;;;;;;20.27;12.70;;;;;;;10.57;98.50;97913.72;2954734;80;21046;-71
2022/01/04 13:13:30;;;;;;;17.12;9.73;;;;;;;10.69;97.77;97902.95;2902345;81;20974;-73
2022/01/04 13:17:32;;;;;;;17.62;11.55;;;;;;;10.69;98.10;97895.46;2924868;81;20974;-72
2022/01/04 13:21:34;;;;;;;108.92;63.48;;;;;;;10.70;98.17;97891.30;2926214;81;21020;-72
2022/01/04 13:25:36;;;;;;;172.22;109.00;;;;;;;10.84;97.19;97887.48;2922133;81;20969;-72
2022/01/04 13:29:37;;;;;;;110.85;65.25;;;;;;;10.78;97.53;97880.23;2922818;81;21020;-72
2022/01/04 13:33:39;;;;;;;123.90;83.62;;;;;;;10.84;97.03;97867.02;2918056;81;21095;-72
2022/01/04 13:37:45;;;;;;;47.08;26.73;;;;;;;10.76;97.85;97871.62;2914834;81;21043;-72
2022/01/04 13:41:46;;;;;;;23.73;16.27;;;;;;;10.76;98.19;97864.97;2915432;80;21008;-72
2022/01/04 13:45:58;;;;;;;16.70;12.43;;;;;;;10.78;97.90;97852.31;2914131;81;20980;-72
2022/01/04 13:50:13;;;;;;;15.20;9.93;;;;;;;10.75;97.78;97836.73;2954125;80;21042;-72
2022/01/04 13:54:18;;;;;;;18.02;11.78;;;;;;;10.66;98.41;97827.55;2874104;81;21033;-72
2022/01/04 13:58:50;;;;;;;17.52;11.18;;;;;;;10.71;98.18;97822.48;2898468;82;21066;-72
2022/01/04 14:02:52;;;;;;;19.52;11.30;;;;;;;10.71;98.33;97823.81;2929202;80;21059;-70
2022/01/04 14:06:59;;;;;;;28.25;17.52;;;;;;;10.70;98.56;97802.23;2872226;83;21672;-71
2022/01/04 14:11:03;;;;;;;25.02;15.95;;;;;;;10.70;98.64;97805.37;2871617;81;21001;-72
2022/01/04 14:15:08;;;;;;;107.00;52.75;;;;;;;10.81;97.84;97811.55;2897813;81;21023;-72
2022/01/04 14:19:24;;;;;;;142.45;71.07;;;;;;;10.87;97.29;97807.32;2955894;80;21026;-70
2022/01/04 14:23:36;;;;;;;155.35;66.35;;;;;;;10.93;96.94;97807.08;2912647;81;21011;-70
2022/01/04 14:27:44;;;;;;;99.35;54.63;;;;;;;10.91;96.98;97792.63;2953257;80;21036;-68
2022/01/04 14:31:46;;;;;;;180.87;80.67;;;;;;;10.94;96.44;97788.77;2902437;81;20989;-70
2022/01/04 14:35:47;;;;;;;161.97;70.92;;;;;;;11.02;96.17;97793.15;2874535;83;20974;-71
2022/01/04 14:39:54;;;;;;;131.93;66.07;;;;;;;11.04;95.88;97789.79;2874729;83;20996;-72
2022/01/04 14:43:55;;;;;;;155.35;80.47;;;;;;;11.09;95.37;97779.39;2874998;82;20981;-73
2022/01/04 14:47:57;;;;;;;203.75;97.88;;;;;;;11.09;95.23;97768.75;2874633;83;20965;-70
2022/01/04 14:51:59;;;;;;;106.50;56.10;;;;;;;11.12;95.02;97767.03;2874978;83;21029;-71
2022/01/04 14:56:05;;;;;;;38.02;22.30;;;;;;;11.11;95.09;97768.05;2874735;83;20988;-71
2022/01/04 15:00:10;;;;;;;32.38;19.20;;;;;;;11.07;95.31;97766.79;2919078;80;21030;-71
2022/01/04 15:04:11;;;;;;;35.48;22.00;;;;;;;11.06;95.46;97759.83;2914748;81;21063;-71
2022/01/04 15:08:13;;;;;;;26.70;19.70;;;;;;;11.14;94.97;97757.02;2915392;81;21004;-70
2022/01/04 15:12:15;;;;;;;19.32;13.22;;;;;;;11.19;94.72;97753.27;2914210;81;21005;-71
2022/01/04 15:16:16;;;;;;;22.58;15.08;;;;;;;11.27;94.07;97750.48;2914610;80;21048;-70
2022/01/04 15:20:18;;;;;;;18.20;11.00;;;;;;;11.31;93.83;97742.11;2914578;81;21056;-70
2022/01/04 15:24:21;;;;;;;17.92;10.65;;;;;;;11.38;93.72;97744.30;2914870;81;21321;-70
2022/01/04 15:28:23;;;;;;;19.98;14.90;;;;;;;11.41;93.53;97731.97;2914585;81;21048;-71
2022/01/04 15:32:25;;;;;;;18.32;12.68;;;;;;;11.46;93.37;97741.52;2914718;81;20977;-71
2022/01/04 15:36:27;;;;;;;20.75;12.45;;;;;;;11.49;92.53;97741.12;2914572;81;21009;-71
2022/01/04 15:40:29;;;;;;;12.47;8.80;;;;;;;11.53;92.43;97746.36;2914611;81;21052;-71
2022/01/04 15:44:31;;;;;;;15.95;13.55;;;;;;;11.54;92.26;97745.34;2914609;81;21008;-71
2022/01/04 15:48:33;;;;;;;38.13;22.45;;;;;;;11.61;92.22;97745.92;2914547;81;21044;-71
2022/01/04 15:52:34;;;;;;;45.15;25.48;;;;;;;11.61;91.79;97737.93;2914869;81;21004;-71
2022/01/04 15:56:36;;;;;;;29.90;17.73;;;;;;;11.68;91.59;97749.44;2914765;81;21055;-71
2022/01/04 16:00:39;;;;;;;30.90;17.15;;;;;;;11.65;91.34;97745.84;2914601;81;21009;-71
2022/01/04 16:04:40;;;;;;;10.18;9.10;;;;;;;11.68;91.50;97750.24;2914596;81;21067;-71
2022/01/04 16:08:42;;;;;;;12.45;8.75;;;;;;;11.76;91.50;97759.11;2915163;80;21004;-70
2022/01/04 16:12:45;;;;;;;15.63;9.38;;;;;;;11.81;90.73;97757.52;2915748;80;21081;-70
2022/01/04 16:17:21;;;;;;;17.77;11.65;;;;;;;11.76;90.34;97753.79;2916607;81;21052;-70
2022/01/04 16:25:07;;;;;;;16.50;6.50;;;;;;;11.62;90.52;97750.22;2908188;81;21011;-71
2022/01/04 16:29:18;;;;;;;12.18;6.78;;;;;;;11.60;90.88;97762.91;2914202;80;21389;-71
2022/01/04 16:33:20;;;;;;;24.10;17.92;;;;;;;11.48;91.29;97770.58;2915043;81;21039;-69
2022/01/04 16:37:21;;;;;;;15.88;10.72;;;;;;;11.31;92.01;97784.70;2912751;81;21023;-70
2022/01/04 16:41:26;;;;;;;55.65;28.57;;;;;;;11.12;93.16;97797.14;2912829;81;21003;-70
2022/01/04 16:45:27;;;;;;;89.20;42.70;;;;;;;10.82;95.31;97801.23;2924984;81;20958;-70
2022/01/04 16:49:29;;;;;;;103.17;49.00;;;;;;;10.65;96.46;97816.60;2872130;83;20922;-70
2022/01/04 16:53:31;;;;;;;84.55;43.85;;;;;;;10.54;97.68;97810.42;2914664;81;21042;-71
2022/01/04 16:57:32;;;;;;;39.15;23.40;;;;;;;10.42;98.22;97824.20;2955589;80;21002;-70
2022/01/04 17:01:34;;;;;;;19.55;13.20;;;;;;;10.35;98.30;97836.53;2896450;81;20999;-70
2022/01/04 17:05:41;;;;;;;21.93;13.83;;;;;;;10.24;98.46;97848.97;2953106;80;21023;-70
2022/01/04 17:09:48;;;;;;;;;;;;;;;10.05;99.14;97847.67;2925630;80;20962;-70
2022/01/04 17:18:01;;;;;;;41.23;18.50;;;;;;;9.89;99.63;97853.98;2913471;80;21259;-70
2022/01/04 17:22:03;;;;;;;18.17;11.78;;;;;;;9.71;99.97;97869.75;2954945;80;21014;-70
2022/01/04 17:26:05;;;;;;;12.73;9.55;;;;;;;9.54;99.37;97875.19;2914250;80;21022;-70
2022/01/04 17:30:11;;;;;;;14.78;9.35;;;;;;;9.43;99.40;97883.56;2954854;80;20992;-69
2022/01/04 17:34:14;;;;;;;16.75;9.50;;;;;;;9.35;99.23;97887.13;2903194;80;21051;-70
2022/01/04 17:38:17;;;;;;;7.47;5.65;;;;;;;9.27;98.96;97910.55;2914216;80;21026;-70
2022/01/04 17:42:18;;;;;;;5.83;3.92;;;;;;;9.14;99.41;97895.70;2875710;83;21040;-70
2022/01/04 17:46:20;;;;;;;7.12;5.40;;;;;;;9.19;99.20;97906.61;2907123;82;21011;-70
2022/01/04 17:50:23;;;;;;;7.05;4.65;;;;;;;9.24;99.07;97913.56;2875470;83;20979;-70
2022/01/04 17:54:25;;;;;;;6.80;4.90;;;;;;;9.18;99.60;97923.53;2906634;81;21010;-72
2022/01/04 17:58:27;;;;;;;5.47;3.77;;;;;;;9.18;99.08;97944.75;2874754;83;21031;-72
2022/01/04 18:02:29;;;;;;;4.53;3.52;;;;;;;9.12;99.37;97971.45;2905235;82;20979;-72
2022/01/04 18:06:32;;;;;;;2.37;1.82;;;;;;;8.94;98.20;97992.93;2873301;81;21665;-73
2022/01/04 18:10:34;;;;;;;1.37;1.27;;;;;;;8.65;95.34;97999.66;2903834;81;20994;-73
2022/01/04 18:14:36;;;;;;;2.50;1.47;;;;;;;8.54;95.58;98022.53;2872960;81;20999;-72
2022/01/04 18:18:38;;;;;;;3.65;2.52;;;;;;;8.32;96.16;98034.13;2895287;82;20995;-72
2022/01/04 18:22:40;;;;;;;1.75;1.35;;;;;;;8.34;96.32;98037.43;2871055;83;21055;-72
2022/01/04 18:26:42;;;;;;;0.85;0.82;;;;;;;8.25;96.94;98044.55;2903904;82;21058;-72
2022/01/04 18:30:44;;;;;;;1.30;1.12;;;;;;;8.13;95.54;98058.63;2872774;83;21035;-73
2022/01/04 18:34:46;;;;;;;1.25;0.80;;;;;;;8.07;95.92;98059.30;2904513;82;20971;-72
2022/01/04 18:38:49;;;;;;;1.90;0.98;;;;;;;8.09;95.63;98063.08;2876667;81;20994;-73
2022/01/04 18:42:51;;;;;;;2.05;1.67;;;;;;;8.00;96.15;98061.77;2877204;82;20999;-73
2022/01/04 18:46:53;;;;;;;6.33;3.87;;;;;;;8.03;96.49;98055.80;2877408;82;21020;-71
2022/01/04 18:50:55;;;;;;;39.30;23.30;;;;;;;7.88;95.72;98068.36;2877547;82;21077;-72
2022/01/04 18:54:57;;;;;;;46.00;22.20;;;;;;;7.89;95.08;98083.25;2894428;81;21064;-74
2022/01/04 18:59:02;;;;;;;26.75;15.48;;;;;;;8.03;94.54;98089.72;2873015;82;21004;-71
2022/01/04 19:03:03;;;;;;;5.40;3.27;;;;;;;8.13;94.79;98093.53;2875885;82;21026;-73
2022/01/04 19:07:05;;;;;;;1.65;1.25;;;;;;;8.12;94.24;98099.82;2873130;82;21110;-76
2022/01/04 19:11:07;;;;;;;2.77;1.95;;;;;;;8.14;94.29;98115.89;2873371;82;21014;-76
2022/01/04 19:15:10;;;;;;;4.20;1.62;;;;;;;8.13;94.32;98114.23;2872749;82;21011;-78
2022/01/04 19:19:11;;;;;;;3.75;2.05;;;;;;;8.22;94.04;98119.53;2872132;82;21018;-77